createdAt,value
2018-07-30T00:01:48.871Z,60.03
2018-07-30T00:04:17.682Z,60.48
2018-07-30T00:06:46.104Z,60.07
2018-07-30T00:09:14.249Z,60.14
2018-07-30T00:11:42.656Z,60.43
2018-07-30T00:14:11.360Z,60.99
2018-07-30T00:16:39.968Z,60.29
2018-07-30T00:19:08.380Z,60.87
2018-07-30T00:21:36.476Z,61.57
2018-07-30T00:24:04.552Z,61.59
2018-07-30T00:26:32.979Z,61.82
2018-07-30T00:29:01.100Z,62.17
2018-07-30T00:31:29.395Z,61.93
2018-07-30T00:33:58.037Z,62.21
2018-07-30T00:36:26.691Z,62.25
2018-07-30T00:38:55.522Z,62.42
2018-07-30T00:41:23.620Z,61.63
2018-07-30T00:43:52.071Z,61.78
2018-07-30T00:46:20.182Z,61.66
2018-07-30T00:48:48.276Z,62.07
2018-07-30T00:51:16.744Z,62.58
2018-07-30T00:53:44.855Z,62.08
2018-07-30T00:56:12.951Z,62.76
2018-07-30T00:58:41.599Z,62.89
2018-07-30T01:01:10.280Z,62.51
2018-07-30T01:03:38.705Z,62.74
2018-07-30T01:06:06.991Z,63.23
2018-07-30T01:08:35.428Z,64.08
2018-07-30T01:11:04.327Z,64.59
2018-07-30T01:13:32.987Z,64.38
2018-07-30T01:16:01.640Z,64.98
2018-07-30T01:18:30.080Z,64.39
2018-07-30T01:20:58.544Z,65.53
2018-07-30T01:23:26.780Z,65.28
2018-07-30T01:25:55.188Z,64.69
2018-07-30T01:28:23.600Z,65.20
2018-07-30T01:30:52.073Z,64.51
2018-07-30T01:33:20.700Z,65.34
2018-07-30T01:35:49.120Z,64.71
2018-07-30T01:38:17.410Z,65.34
2018-07-30T01:40:45.842Z,65.27
2018-07-30T01:43:14.464Z,65.27
2018-07-30T01:45:43.275Z,65.72
2018-07-30T01:48:11.372Z,65.55
2018-07-30T01:50:39.797Z,65.56
2018-07-30T01:53:08.232Z,65.33
2018-07-30T01:55:36.672Z,65.38
2018-07-30T01:58:05.336Z,64.66
2018-07-30T02:00:33.413Z,64.58
2018-07-30T02:03:02.053Z,64.62
2018-07-30T02:05:30.144Z,64.69
2018-07-30T02:07:58.528Z,65.09
2018-07-30T02:10:26.968Z,64.81
2018-07-30T02:12:55.800Z,65.56
2018-07-30T02:15:24.459Z,65.78
2018-07-30T02:17:52.561Z,65.19
2018-07-30T02:20:20.894Z,66.00
2018-07-30T02:22:49.235Z,65.61
2018-07-30T02:25:17.589Z,65.98
2018-07-30T02:27:46.252Z,65.90
2018-07-30T02:30:14.924Z,66.43
2018-07-30T02:32:43.285Z,66.38
2018-07-30T02:35:11.834Z,66.15
2018-07-30T02:37:39.941Z,65.77
2018-07-30T02:40:08.321Z,66.09
2018-07-30T02:42:36.749Z,66.14
2018-07-30T02:45:05.659Z,65.85
2018-07-30T02:47:34.052Z,66.63
2018-07-30T02:50:03.133Z,66.07
2018-07-30T02:52:31.772Z,65.92
2018-07-30T02:54:59.900Z,66.20
2018-07-30T02:57:28.319Z,67.01
2018-07-30T02:59:57.200Z,66.54
2018-07-30T03:02:25.627Z,66.88
2018-07-30T03:04:54.213Z,67.01
2018-07-30T03:07:22.868Z,67.19
2018-07-30T03:09:50.960Z,67.04
2018-07-30T03:12:19.637Z,66.96
2018-07-30T03:14:48.533Z,66.66
2018-07-30T03:17:16.827Z,66.98
2018-07-30T03:19:45.292Z,67.12
2018-07-30T03:22:13.559Z,66.38
2018-07-30T03:24:42.249Z,66.45
2018-07-30T03:27:10.659Z,66.27
2018-07-30T03:29:38.964Z,67.00
2018-07-30T03:32:07.433Z,66.34
2018-07-30T03:34:36.032Z,66.51
2018-07-30T03:37:04.448Z,66.49
2018-07-30T03:39:32.536Z,67.20
2018-07-30T03:42:01.112Z,67.06
2018-07-30T03:44:29.735Z,66.96
2018-07-30T03:46:58.148Z,66.99
2018-07-30T03:49:26.720Z,67.37
2018-07-30T03:51:54.816Z,67.83
2018-07-30T03:54:23.507Z,68.14
2018-07-30T03:56:51.944Z,67.81
2018-07-30T03:59:20.723Z,67.82
2018-07-30T04:01:49.160Z,68.68
2018-07-30T04:04:17.580Z,68.39
2018-07-30T04:06:46.004Z,68.58
2018-07-30T04:09:14.363Z,68.88
2018-07-30T04:11:42.972Z,67.95
2018-07-30T04:14:11.647Z,67.79
2018-07-30T04:16:45.271Z,68.03
2018-07-30T04:19:13.849Z,67.36
2018-07-30T04:21:42.309Z,67.20
2018-07-30T04:24:10.840Z,67.62
2018-07-30T04:26:38.959Z,67.43
2018-07-30T04:29:07.396Z,67.06
2018-07-30T04:31:35.832Z,67.07
2018-07-30T04:34:04.136Z,67.20
2018-07-30T04:36:32.240Z,67.37
2018-07-30T04:39:00.852Z,66.57
2018-07-30T04:41:29.264Z,66.77
2018-07-30T04:43:57.376Z,67.09
2018-07-30T04:46:25.794Z,66.61
2018-07-30T04:48:54.256Z,66.14
2018-07-30T04:51:22.687Z,65.63
2018-07-30T04:53:51.140Z,65.48
2018-07-30T04:56:19.955Z,65.11
2018-07-30T04:58:48.379Z,65.42
2018-07-30T05:01:17.040Z,64.45
2018-07-30T05:03:45.932Z,64.18
2018-07-30T05:06:14.185Z,63.81
2018-07-30T05:08:42.955Z,63.77
2018-07-30T05:11:11.556Z,63.89
2018-07-30T05:13:40.207Z,63.37
2018-07-30T05:16:08.775Z,62.68
2018-07-30T05:18:37.185Z,62.29
2018-07-30T05:21:05.620Z,61.71
2018-07-30T05:23:34.304Z,61.14
2018-07-30T05:26:02.386Z,60.45
2018-07-30T05:28:30.996Z,60.65
2018-07-30T05:30:59.431Z,60.33
2018-07-30T05:33:27.700Z,59.32
2018-07-30T05:35:56.151Z,59.80
2018-07-30T05:38:24.805Z,60.16
2018-07-30T05:40:53.736Z,59.97
2018-07-30T05:43:22.156Z,59.88
2018-07-30T05:45:50.560Z,58.20
2018-07-30T05:48:18.875Z,59.35
2018-07-30T05:50:47.292Z,58.61
2018-07-30T05:53:15.736Z,59.73
2018-07-30T05:55:44.371Z,58.62
2018-07-30T05:58:13.044Z,59.00
2018-07-30T06:00:41.694Z,57.77
2018-07-30T06:03:10.044Z,57.77
2018-07-30T06:05:38.116Z,58.28
2018-07-30T06:08:06.732Z,57.90
2018-07-30T06:10:34.813Z,58.75
2018-07-30T06:13:03.227Z,58.63
2018-07-30T06:15:31.896Z,58.96
2018-07-30T06:18:00.307Z,58.49
2018-07-30T06:20:28.964Z,58.78
2018-07-30T06:22:57.276Z,58.60
2018-07-30T06:28:06.017Z,57.52
2018-07-30T06:30:34.096Z,57.60
2018-07-30T06:33:02.529Z,56.23
2018-07-30T06:35:30.631Z,54.98
2018-07-30T06:37:59.231Z,54.04
2018-07-30T06:40:27.652Z,55.08
2018-07-30T06:42:56.087Z,53.81
2018-07-30T06:45:24.810Z,53.48
2018-07-30T06:47:53.255Z,52.64
2018-07-30T06:50:21.503Z,52.34
2018-07-30T06:52:49.928Z,51.45
2018-07-30T06:55:18.004Z,50.79
2018-07-30T06:57:46.090Z,50.51
2018-07-30T07:00:14.491Z,50.37
2018-07-30T07:02:43.188Z,49.28
2018-07-30T07:05:11.936Z,49.63
2018-07-30T07:07:40.373Z,50.22
2018-07-30T07:10:10.092Z,49.92
2018-07-30T07:12:38.360Z,49.13
2018-07-30T07:15:08.920Z,49.28
2018-07-30T07:17:37.592Z,49.66
2018-07-30T07:20:05.843Z,48.53
2018-07-30T07:22:34.372Z,49.24
2018-07-30T07:25:02.855Z,49.95
2018-07-30T07:27:31.352Z,49.75
2018-07-30T07:29:59.580Z,49.03
2018-07-30T07:32:27.908Z,49.53
2018-07-30T07:34:56.580Z,49.76
2018-07-30T07:37:25.109Z,50.58
2018-07-30T07:39:53.445Z,50.93
2018-07-30T07:42:21.545Z,51.12
2018-07-30T07:44:50.212Z,49.89
2018-07-30T07:47:19.040Z,50.28
2018-07-30T07:49:47.452Z,50.33
2018-07-30T07:52:15.908Z,50.19
2018-07-30T07:54:44.323Z,48.69
2018-07-30T07:57:12.420Z,47.85
2018-07-30T07:59:40.516Z,47.53
2018-07-30T08:02:08.913Z,47.44
2018-07-30T08:04:37.524Z,46.33
2018-07-30T08:07:06.385Z,45.81
2018-07-30T08:09:34.823Z,45.25
2018-07-30T08:12:03.096Z,45.04
2018-07-30T08:14:31.172Z,45.33
2018-07-30T08:16:59.608Z,46.08
2018-07-30T08:19:28.036Z,45.58
2018-07-30T08:21:56.132Z,46.36
2018-07-30T08:24:24.749Z,44.90
2018-07-30T08:26:53.412Z,45.59
2018-07-30T08:29:22.286Z,46.23
2018-07-30T08:31:50.600Z,45.37
2018-07-30T08:34:19.028Z,44.52
2018-07-30T08:36:47.104Z,44.43
2018-07-30T08:39:15.191Z,44.86
2018-07-30T08:41:43.863Z,43.85
2018-07-30T08:44:11.968Z,42.44
2018-07-30T08:46:40.604Z,43.55
2018-07-30T08:49:09.060Z,43.38
2018-07-30T08:51:37.663Z,43.11
2018-07-30T08:54:06.240Z,44.03
2018-07-30T08:56:34.661Z,42.50
2018-07-30T08:59:02.965Z,42.49
2018-07-30T09:01:31.052Z,42.46
2018-07-30T09:03:59.536Z,42.00
2018-07-30T09:06:27.851Z,41.82
2018-07-30T09:08:55.992Z,42.53
2018-07-30T09:11:24.405Z,41.92
2018-07-30T09:13:52.836Z,40.47
2018-07-30T09:16:20.919Z,39.87
2018-07-30T09:18:49.208Z,39.98
2018-07-30T09:21:17.896Z,38.82
2018-07-30T09:23:46.515Z,39.32
2018-07-30T09:26:14.588Z,40.20
2018-07-30T09:28:42.936Z,39.78
2018-07-30T09:31:11.381Z,39.03
2018-07-30T09:33:39.803Z,40.04
2018-07-30T09:36:07.913Z,39.77
2018-07-30T09:38:36.327Z,38.46
2018-07-30T09:41:04.719Z,38.71
2018-07-30T09:43:33.036Z,39.46
2018-07-30T09:46:01.388Z,39.85
2018-07-30T09:48:29.816Z,39.82
2018-07-30T09:50:57.917Z,39.87
2018-07-30T09:53:26.544Z,38.19
2018-07-30T09:55:55.404Z,39.01
2018-07-30T09:58:23.569Z,39.45
2018-07-30T10:00:57.497Z,40.34
2018-07-30T10:03:25.924Z,40.48
2018-07-30T10:05:54.104Z,39.52
2018-07-30T10:08:22.768Z,39.29
2018-07-30T10:10:51.272Z,39.64
2018-07-30T10:13:19.700Z,40.49
2018-07-30T10:15:47.775Z,38.93
2018-07-30T10:18:15.905Z,38.34
2018-07-30T10:20:44.185Z,38.18
2018-07-30T10:23:12.613Z,37.92
2018-07-30T10:25:41.031Z,36.80
2018-07-30T10:28:09.473Z,37.11
2018-07-30T10:30:37.911Z,36.95
2018-07-30T10:33:06.420Z,37.16
2018-07-30T10:35:35.115Z,37.78
2018-07-30T10:38:03.771Z,37.73
2018-07-30T10:40:32.188Z,38.12
2018-07-30T10:43:00.498Z,37.00
2018-07-30T10:45:29.096Z,37.06
2018-07-30T10:47:58.419Z,36.95
2018-07-30T10:50:26.831Z,36.95
2018-07-30T10:52:54.936Z,36.40
2018-07-30T10:55:23.369Z,36.79
2018-07-30T10:57:51.807Z,36.86
2018-07-30T11:00:22.088Z,35.88
2018-07-30T11:02:50.172Z,36.64
2018-07-30T11:05:18.968Z,36.88
2018-07-30T11:07:47.041Z,36.01
2018-07-30T11:10:15.648Z,36.09
2018-07-30T11:12:44.104Z,36.80
2018-07-30T11:15:12.224Z,36.93
2018-07-30T11:17:40.640Z,36.57
2018-07-30T11:20:09.072Z,37.42
2018-07-30T11:22:37.512Z,36.22
2018-07-30T11:25:06.020Z,36.94
2018-07-30T11:27:34.176Z,35.36
2018-07-30T11:30:02.790Z,36.60
2018-07-30T11:32:31.449Z,35.30
2018-07-30T11:35:00.049Z,34.75
2018-07-30T11:37:28.636Z,35.44
2018-07-30T11:39:56.871Z,35.35
2018-07-30T11:42:25.399Z,35.03
2018-07-30T11:44:53.994Z,34.13
2018-07-30T11:47:22.441Z,33.66
2018-07-30T11:49:51.298Z,33.70
2018-07-30T11:52:20.004Z,34.57
2018-07-30T11:54:48.362Z,34.15
2018-07-30T11:57:16.994Z,35.52
2018-07-30T11:59:45.668Z,35.06
2018-07-30T12:02:13.888Z,35.09
2018-07-30T12:04:41.987Z,35.93
2018-07-30T12:07:10.056Z,34.76
2018-07-30T12:09:38.476Z,34.14
2018-07-30T12:12:06.563Z,32.96
2018-07-30T12:14:34.999Z,33.63
2018-07-30T12:17:03.545Z,34.09
2018-07-30T12:19:31.792Z,34.03
2018-07-30T12:22:00.260Z,34.53
2018-07-30T12:24:28.684Z,34.59
2018-07-30T12:26:57.096Z,34.77
2018-07-30T12:29:25.764Z,34.54
2018-07-30T12:31:53.840Z,34.68
2018-07-30T12:34:22.276Z,34.25
2018-07-30T12:36:50.685Z,35.34
2018-07-30T12:39:19.331Z,35.12
2018-07-30T12:41:48.215Z,33.11
2018-07-30T12:44:16.884Z,33.17
2018-07-30T12:46:45.357Z,32.79
2018-07-30T12:49:13.966Z,33.63
2018-07-30T12:51:42.690Z,31.95
2018-07-30T12:54:11.344Z,32.05
2018-07-30T12:56:39.764Z,31.48
2018-07-30T12:59:08.163Z,31.64
2018-07-30T13:01:36.605Z,32.22
2018-07-30T13:04:05.012Z,32.73
2018-07-30T13:06:33.325Z,32.77
2018-07-30T13:09:01.783Z,33.32
2018-07-30T13:11:30.320Z,31.01
2018-07-30T13:13:58.951Z,31.09
2018-07-30T13:16:27.588Z,32.18
2018-07-30T13:18:56.036Z,31.53
2018-07-30T13:21:24.663Z,30.30
2018-07-30T13:23:53.272Z,30.33
2018-07-30T13:26:21.933Z,29.25
2018-07-30T13:28:50.553Z,30.60
2018-07-30T13:31:19.152Z,29.43
2018-07-30T13:33:47.561Z,30.32
2018-07-30T13:36:16.784Z,30.90
2018-07-30T13:38:45.431Z,31.74
2018-07-30T13:41:14.108Z,32.05
2018-07-30T13:43:42.771Z,33.09
2018-07-30T13:46:10.864Z,32.87
2018-07-30T13:48:39.372Z,32.40
2018-07-30T13:51:07.602Z,33.09
2018-07-30T13:53:36.231Z,32.94
2018-07-30T13:56:04.304Z,32.93
2018-07-30T13:58:32.992Z,32.45
2018-07-30T14:01:01.432Z,31.79
2018-07-30T14:03:29.868Z,32.52
2018-07-30T14:05:58.288Z,32.22
2018-07-30T14:08:26.919Z,32.03
2018-07-30T14:10:55.496Z,31.05
2018-07-30T14:13:23.582Z,31.56
2018-07-30T14:15:52.004Z,32.05
2018-07-30T14:18:21.108Z,31.62
2018-07-30T14:20:49.768Z,31.65
2018-07-30T14:23:17.844Z,31.82
2018-07-30T14:25:46.175Z,32.37
2018-07-30T14:28:14.840Z,33.02
2018-07-30T14:30:43.316Z,33.35
2018-07-30T14:33:11.744Z,33.65
2018-07-30T14:35:40.212Z,34.36
2018-07-30T14:38:08.308Z,32.95
2018-07-30T14:40:36.388Z,33.00
2018-07-30T14:43:05.016Z,32.43
2018-07-30T14:45:33.496Z,33.12
2018-07-30T14:48:01.580Z,31.66
2018-07-30T14:50:29.987Z,31.81
2018-07-30T14:52:58.392Z,30.65
2018-07-30T14:55:26.706Z,31.33
2018-07-30T14:57:55.152Z,30.44
2018-07-30T15:00:23.555Z,31.13
2018-07-30T15:02:51.648Z,30.83
2018-07-30T15:05:21.403Z,30.99
2018-07-30T15:07:50.153Z,31.90
2018-07-30T15:10:18.596Z,32.18
2018-07-30T15:12:46.692Z,32.07
2018-07-30T15:15:15.120Z,32.22
2018-07-30T15:17:43.467Z,31.26
2018-07-30T15:20:12.116Z,31.61
2018-07-30T15:22:40.212Z,32.20
2018-07-30T15:25:08.508Z,32.15
2018-07-30T15:27:36.937Z,32.52
2018-07-30T15:30:06.404Z,32.23
2018-07-30T15:32:34.512Z,32.12
2018-07-30T15:35:02.616Z,33.88
2018-07-30T15:37:31.261Z,33.05
2018-07-30T15:39:59.927Z,34.06
2018-07-30T15:42:28.460Z,33.25
2018-07-30T15:44:57.148Z,33.01
2018-07-30T15:47:25.625Z,33.76
2018-07-30T15:49:53.704Z,34.68
2018-07-30T15:52:22.317Z,34.23
2018-07-30T15:54:50.781Z,34.92
2018-07-30T15:57:19.065Z,34.64
2018-07-30T15:59:47.136Z,34.48
2018-07-30T16:02:15.584Z,34.30
2018-07-30T16:04:44.016Z,35.85
2018-07-30T16:07:12.480Z,34.13
2018-07-30T16:09:40.896Z,35.04
2018-07-30T16:12:09.013Z,34.59
2018-07-30T16:14:37.520Z,34.47
2018-07-30T16:17:06.319Z,34.67
2018-07-30T16:19:43.895Z,35.82
2018-07-30T16:22:12.324Z,35.39
2018-07-30T16:24:40.743Z,34.94
2018-07-30T16:27:09.108Z,34.45
2018-07-30T16:29:37.696Z,34.74
2018-07-30T16:32:06.108Z,35.20
2018-07-30T16:34:34.780Z,35.76
2018-07-30T16:37:03.212Z,35.70
2018-07-30T16:39:31.633Z,35.77
2018-07-30T16:42:00.065Z,35.42
2018-07-30T16:44:28.344Z,35.48
2018-07-30T16:46:56.957Z,35.66
2018-07-30T16:49:25.621Z,35.23
2018-07-30T16:51:54.002Z,36.46
2018-07-30T16:54:22.686Z,36.22
2018-07-30T16:56:51.448Z,35.42
2018-07-30T16:59:19.873Z,35.47
2018-07-30T17:01:48.040Z,36.32
2018-07-30T17:04:16.439Z,36.05
2018-07-30T17:06:44.927Z,36.04
2018-07-30T17:09:13.349Z,35.59
2018-07-30T17:11:42.525Z,35.31
2018-07-30T17:14:10.996Z,36.23
2018-07-30T17:16:39.231Z,35.28
2018-07-30T17:19:08.045Z,34.77
2018-07-30T17:21:42.426Z,35.54
2018-07-30T17:24:10.952Z,36.47
2018-07-30T17:26:39.784Z,35.45
2018-07-30T17:29:08.290Z,35.25
2018-07-30T17:31:36.794Z,35.75
2018-07-30T17:34:05.391Z,36.45
2018-07-30T17:36:33.630Z,36.77
2018-07-30T17:39:01.936Z,36.75
2018-07-30T17:41:30.604Z,36.36
2018-07-30T17:43:58.720Z,36.17
2018-07-30T17:46:27.048Z,36.60
2018-07-30T17:48:55.480Z,36.35
2018-07-30T17:51:23.938Z,37.16
2018-07-30T17:53:52.542Z,36.07
2018-07-30T17:56:21.180Z,36.66
2018-07-30T17:58:49.815Z,36.57
2018-07-30T18:01:18.254Z,37.09
2018-07-30T18:03:46.916Z,37.07
2018-07-30T18:06:15.339Z,36.83
2018-07-30T18:08:43.768Z,37.05
2018-07-30T18:11:11.872Z,36.50
2018-07-30T18:13:40.381Z,37.79
2018-07-30T18:16:08.712Z,37.80
2018-07-30T18:18:36.808Z,37.94
2018-07-30T18:21:05.550Z,37.50
2018-07-30T18:23:34.288Z,37.15
2018-07-30T18:26:02.460Z,37.48
2018-07-30T18:28:30.597Z,37.58
2018-07-30T18:30:58.720Z,37.46
2018-07-30T18:33:27.019Z,38.13
2018-07-30T18:35:55.539Z,36.97
2018-07-30T18:38:23.632Z,37.43
2018-07-30T18:40:52.101Z,37.74
2018-07-30T18:43:20.784Z,39.21
2018-07-30T18:45:49.468Z,38.62
2018-07-30T18:48:17.847Z,39.62
2018-07-30T18:50:46.604Z,40.22
2018-07-30T18:53:18.013Z,39.87
2018-07-30T18:55:46.445Z,40.73
2018-07-30T18:58:14.901Z,40.79
2018-07-30T19:00:43.329Z,40.81
2018-07-30T19:03:11.864Z,41.67
2018-07-30T19:05:39.985Z,42.49
2018-07-30T19:08:08.420Z,42.10
2018-07-30T19:10:36.918Z,42.26
2018-07-30T19:13:05.155Z,42.27
2018-07-30T19:15:33.809Z,42.67
2018-07-30T19:18:02.322Z,43.86
2018-07-30T19:20:30.923Z,43.43
2018-07-30T19:22:59.057Z,44.28
2018-07-30T19:25:27.727Z,43.45
2018-07-30T19:27:55.823Z,44.42
2018-07-30T19:30:23.980Z,44.86
2018-07-30T19:32:52.401Z,44.98
2018-07-30T19:35:20.642Z,45.03
2018-07-30T19:37:49.308Z,45.52
2018-07-30T19:40:17.755Z,45.93
2018-07-30T19:42:46.393Z,46.33
2018-07-30T19:45:14.916Z,46.65
2018-07-30T19:47:43.019Z,45.98
2018-07-30T19:50:11.900Z,46.27
2018-07-30T19:52:40.581Z,47.31
2018-07-30T19:55:10.660Z,47.03
2018-07-30T19:57:39.400Z,46.51
2018-07-30T20:00:08.956Z,46.56
2018-07-30T20:02:38.115Z,47.00
2018-07-30T20:05:07.164Z,46.83
2018-07-30T20:07:35.607Z,47.82
2018-07-30T20:10:03.721Z,47.96
2018-07-30T20:12:31.987Z,49.61
2018-07-30T20:15:00.415Z,48.61
2018-07-30T20:17:28.858Z,49.19
2018-07-30T20:19:57.499Z,49.48
2018-07-30T20:22:25.815Z,49.52
2018-07-30T20:24:54.348Z,48.62
2018-07-30T20:27:22.608Z,48.83
2018-07-30T20:29:50.940Z,49.68
2018-07-30T20:32:19.369Z,48.86
2018-07-30T20:34:47.463Z,48.73
2018-07-30T20:37:15.796Z,48.76
2018-07-30T20:39:44.232Z,48.89
2018-07-30T20:42:12.364Z,48.95
2018-07-30T20:44:40.954Z,48.76
2018-07-30T20:47:09.048Z,49.83
2018-07-30T20:49:37.709Z,49.91
2018-07-30T20:52:06.091Z,50.80
2018-07-30T20:54:34.722Z,50.59
2018-07-30T20:57:03.411Z,51.25
2018-07-30T20:59:31.500Z,51.18
2018-07-30T21:02:00.209Z,51.98
2018-07-30T21:04:28.295Z,52.84
2018-07-30T21:06:56.815Z,52.34
2018-07-30T21:09:25.491Z,52.49
2018-07-30T21:11:53.588Z,53.16
2018-07-30T21:14:22.031Z,53.11
2018-07-30T21:16:50.121Z,53.81
2018-07-30T21:19:18.411Z,54.44
2018-07-30T21:21:47.092Z,54.77
2018-07-30T21:24:15.512Z,54.67
2018-07-30T21:26:43.789Z,55.15
2018-07-30T21:29:12.216Z,55.72
2018-07-30T21:31:40.655Z,56.01
2018-07-30T21:34:08.732Z,56.73
2018-07-30T21:36:36.837Z,56.90
2018-07-30T21:39:08.366Z,56.21
2018-07-30T21:41:36.968Z,56.64
2018-07-30T21:44:05.159Z,57.45
2018-07-30T21:46:33.600Z,57.72
2018-07-30T21:49:01.693Z,56.78
2018-07-30T21:51:30.136Z,57.73
2018-07-30T21:53:58.242Z,56.60
2018-07-30T21:56:26.857Z,56.69
2018-07-30T21:58:55.280Z,56.80
2018-07-30T22:01:23.595Z,55.97
2018-07-30T22:03:51.684Z,56.32
2018-07-30T22:06:20.304Z,56.60
2018-07-30T22:08:48.767Z,55.90
2018-07-30T22:11:17.233Z,55.88
2018-07-30T22:13:45.872Z,55.37
2018-07-30T22:16:14.525Z,56.01
2018-07-30T22:18:42.628Z,55.27
2018-07-30T22:21:11.054Z,55.48
2018-07-30T22:23:39.960Z,55.88
2018-07-30T22:26:08.052Z,56.62
2018-07-30T22:28:36.415Z,56.97
2018-07-30T22:31:04.833Z,55.42
2018-07-30T22:33:33.136Z,55.51
2018-07-30T22:36:01.465Z,56.14
2018-07-30T22:38:29.888Z,56.77
2018-07-30T22:40:58.307Z,55.70
2018-07-30T22:43:26.651Z,56.21
2018-07-30T22:45:55.076Z,55.81
2018-07-30T22:48:23.507Z,55.66
2018-07-30T22:50:52.234Z,56.01
2018-07-30T22:53:21.130Z,55.43
2018-07-30T22:55:49.764Z,55.44
2018-07-30T22:58:18.200Z,55.42
2018-07-30T23:00:46.620Z,54.88
2018-07-30T23:03:15.029Z,55.09
2018-07-30T23:05:43.737Z,55.35
2018-07-30T23:08:12.164Z,56.21
2018-07-30T23:10:40.243Z,57.46
2018-07-30T23:13:08.955Z,57.32
2018-07-30T23:15:37.060Z,57.39
2018-07-30T23:18:05.749Z,56.70
2018-07-30T23:20:34.603Z,57.00
2018-07-30T23:23:02.900Z,56.80
2018-07-30T23:25:31.312Z,56.60
2018-07-30T23:27:59.420Z,57.57
2018-07-30T23:30:27.543Z,57.66
2018-07-30T23:32:56.380Z,57.22
2018-07-30T23:35:24.863Z,57.60
2018-07-30T23:37:53.263Z,57.42
2018-07-30T23:40:21.736Z,57.64
2018-07-30T23:42:49.843Z,58.43
2018-07-30T23:45:18.168Z,58.01
2018-07-30T23:47:46.608Z,58.71
2018-07-30T23:50:14.692Z,58.92
2018-07-30T23:52:43.155Z,58.86
2018-07-30T23:55:11.291Z,58.77
2018-07-30T23:57:40.130Z,59.38
